ZFD weather

Public forecast

Using degrees Celsius for public forecast. Weather courtesy of forecast.io.

Closest aviation weather report (METAR) to Fond-Du-Lac Airport

Closest report is Stony Rapids Airport, 41.4 nm (76.7 km) E. Retrieved 2020/08/12 15:00 UTC (20 minutes ago):

CYSF 121500Z AUTO 05005KT 1/4SM FG VV002 13/13 A2987 RMK SLP124

Closest aviation forecast (TAF) to Fond-Du-Lac Airport

Closest forecast is Stony Rapids Airport, 41.4 nm (76.7 km) E. Retrieved 2020/08/12 12:42 UTC (3 hours ago):

TAF CYSF 121138Z 1212/1224 VRB03KT 1/4SM FG VV001 BECMG 1214/1216 P6SM NSW FEW004 FM121600 10010KT P6SM FEW020 BKN250 RMK FCST BASED ON AUTO OBS NXT FCST BY 121800Z